Time;durP1;ratioP1;P1;durP2;ratioP2;P2;SDS_P1;SDS_P2;PMS_P1;PMS_P2;Temp;Humidity;BMP_temperature;BMP_pressure;BME280_temperature;BME280_humidity;BME280_pressure;Samples;Min_cycle;Max_cycle;Signal;HPM_P1;HPM_P2
2022/05/05 00:02:41;;;;;;;55.10;35.55;;;;;;;13.11;72.01;99262.78;5224990;28;20138;-71
2022/05/05 00:05:31;;;;;;;56.70;37.58;;;;;;;13.06;71.93;99265.06;5236273;28;20323;-71
2022/05/05 00:08:21;;;;;;;55.72;36.92;;;;;;;13.04;71.83;99271.53;5226940;28;20130;-71
2022/05/05 00:14:31;;;;;;;52.75;35.80;;;;;;;12.97;71.97;99278.44;5223145;28;20116;-71
2022/05/05 00:17:21;;;;;;;55.45;36.47;;;;;;;13.04;71.85;99288.31;5231543;28;20060;-71
2022/05/05 00:20:11;;;;;;;53.33;36.35;;;;;;;13.19;71.84;99291.31;5229873;28;20071;-71
2022/05/05 00:23:02;;;;;;;57.17;37.60;;;;;;;12.88;73.75;99277.53;5247606;28;20052;-71
2022/05/05 00:25:52;;;;;;;58.03;38.67;;;;;;;13.25;72.64;99273.91;5244644;28;20064;-71
2022/05/05 00:28:42;;;;;;;62.38;40.65;;;;;;;13.32;72.75;99259.81;5230508;28;20216;-71
2022/05/05 00:31:33;;;;;;;62.25;41.03;;;;;;;13.35;72.33;99269.34;5245523;28;20048;-71
2022/05/05 00:34:23;;;;;;;72.85;45.67;;;;;;;13.37;72.68;99264.69;5238735;28;20186;-71
2022/05/05 00:37:14;;;;;;;66.45;42.17;;;;;;;13.26;71.76;99254.28;5241813;28;20058;-71
2022/05/05 00:40:05;;;;;;;62.72;41.13;;;;;;;13.19;72.62;99258.53;5225914;28;20055;-71
2022/05/05 00:42:58;;;;;;;60.08;40.22;;;;;;;13.17;72.53;99269.31;5239320;28;20085;-71
2022/05/05 00:45:48;;;;;;;66.35;42.42;;;;;;;13.14;72.78;99257.16;5245391;28;20182;-71
2022/05/05 00:48:42;;;;;;;61.28;39.85;;;;;;;13.14;71.44;99257.16;5257022;28;20071;-71
2022/05/05 00:51:32;;;;;;;61.78;39.90;;;;;;;13.09;71.99;99240.81;5253516;28;20071;-70
2022/05/05 00:54:23;;;;;;;58.75;39.97;;;;;;;13.07;72.07;99256.06;5256172;28;20052;-70
2022/05/05 00:57:14;;;;;;;62.33;39.47;;;;;;;13.25;72.65;99257.94;5255496;28;20135;-70
2022/05/05 01:00:04;;;;;;;62.05;40.60;;;;;;;13.24;72.75;99250.88;5257519;28;20102;-70
2022/05/05 01:02:57;;;;;;;60.15;39.97;;;;;;;13.19;72.00;99238.06;5254128;28;20498;-70
2022/05/05 01:05:47;;;;;;;63.92;42.60;;;;;;;13.36;71.92;99265.69;5252269;28;20056;-70
2022/05/05 01:08:38;;;;;;;62.80;40.00;;;;;;;13.27;72.11;99254.13;5256681;28;20177;-70
2022/05/05 01:11:30;;;;;;;60.25;40.22;;;;;;;13.25;71.91;99261.44;5249141;28;20123;-70
2022/05/05 01:14:20;;;;;;;64.00;40.17;;;;;;;13.29;71.70;99257.47;5251711;28;20055;-70
2022/05/05 01:17:10;;;;;;;58.92;38.38;;;;;;;13.29;72.79;99259.31;5254534;28;20106;-70
2022/05/05 01:20:14;;;;;;;62.78;40.08;;;;;;;13.20;72.83;99241.53;5257175;28;20086;-71
2022/05/05 01:23:05;;;;;;;63.20;39.50;;;;;;;13.27;72.29;99243.47;5250615;28;20370;-71
2022/05/05 01:29:06;;;;;;;66.20;41.10;;;;;;;13.44;72.23;99260.41;5244271;28;20062;-71
2022/05/05 01:31:57;;;;;;;63.35;40.08;;;;;;;13.35;72.14;99270.16;5243555;28;20551;-71
2022/05/05 01:34:47;;;;;;;60.78;40.08;;;;;;;13.30;72.37;99259.13;5225582;28;20079;-71
2022/05/05 01:37:37;;;;;;;54.13;36.63;;;;;;;13.27;71.63;99275.41;5241659;28;20064;-71
2022/05/05 01:40:28;;;;;;;60.75;38.17;;;;;;;13.32;71.51;99278.47;5240921;28;20052;-71
2022/05/05 01:43:21;;;;;;;57.40;37.40;;;;;;;13.27;71.98;99282.56;5230142;28;20056;-71
2022/05/05 01:46:11;;;;;;;54.25;35.72;;;;;;;13.12;71.74;99259.13;5231123;28;20498;-71
2022/05/05 01:49:02;;;;;;;54.83;36.65;;;;;;;13.31;72.12;99282.13;5236839;28;20044;-71
2022/05/05 01:51:52;;;;;;;56.42;36.83;;;;;;;13.30;72.25;99274.28;5225103;28;20119;-71
2022/05/05 01:54:43;;;;;;;54.90;37.55;;;;;;;13.22;72.47;99275.03;5225107;28;20102;-71
2022/05/05 01:57:33;;;;;;;51.33;34.65;;;;;;;13.26;72.03;99276.41;5235343;28;20068;-71
2022/05/05 02:00:23;;;;;;;49.65;33.83;;;;;;;13.15;71.40;99264.16;5225460;28;20044;-71
2022/05/05 02:03:13;;;;;;;47.47;32.83;;;;;;;13.19;71.15;99279.81;5235835;28;20048;-71
2022/05/05 02:06:04;;;;;;;48.42;32.60;;;;;;;13.15;71.87;99282.78;5227992;28;20517;-71
2022/05/05 02:08:57;;;;;;;42.13;31.88;;;;;;;13.20;71.63;99278.81;5233480;28;20056;-71
2022/05/05 02:11:47;;;;;;;57.50;37.08;;;;;;;13.31;71.59;99276.81;5244926;28;20055;-71
2022/05/05 02:14:37;;;;;;;54.38;36.20;;;;;;;13.17;71.80;99272.81;5238123;28;20186;-72
2022/05/05 02:17:27;;;;;;;58.40;36.65;;;;;;;13.01;72.59;99285.97;5237297;28;20067;-71
2022/05/05 02:20:17;;;;;;;56.08;37.72;;;;;;;12.96;72.13;99284.78;5241970;28;20052;-71
2022/05/05 02:23:08;;;;;;;60.45;38.83;;;;;;;12.96;72.17;99285.59;5233708;28;20052;-72
2022/05/05 02:25:58;;;;;;;84.57;38.17;;;;;;;12.98;72.36;99293.41;5227954;28;20503;-71
2022/05/05 02:28:49;;;;;;;68.88;38.30;;;;;;;12.87;72.10;99271.38;5231954;28;20509;-71
2022/05/05 02:31:39;;;;;;;54.67;36.30;;;;;;;12.84;72.81;99286.81;5243733;28;20051;-71
2022/05/05 02:34:30;;;;;;;107.50;40.15;;;;;;;12.96;72.53;99285.59;5224339;28;20082;-70
2022/05/05 02:40:29;;;;;;;88.82;39.55;;;;;;;12.82;72.75;99283.47;5239572;28;20376;-70
2022/05/05 02:43:19;;;;;;;89.07;39.22;;;;;;;12.91;72.35;99283.41;5230288;28;20491;-70
2022/05/05 02:46:09;;;;;;;50.22;35.42;;;;;;;12.72;72.19;99272.06;5240583;28;20110;-70
2022/05/05 02:49:00;;;;;;;110.05;39.50;;;;;;;12.76;72.56;99263.63;5236846;28;20513;-70
2022/05/05 02:51:50;;;;;;;79.78;37.13;;;;;;;12.81;72.64;99281.78;5223767;28;20182;-70
2022/05/05 02:54:54;;;;;;;102.45;38.17;;;;;;;12.75;72.13;99271.75;5222553;28;20183;-70
2022/05/05 02:57:44;;;;;;;57.05;34.45;;;;;;;12.67;72.21;99291.13;5234940;28;20064;-70
2022/05/05 03:00:35;;;;;;;175.82;40.30;;;;;;;12.80;72.45;99282.78;5223435;28;20056;-70
2022/05/05 03:03:25;;;;;;;73.55;34.72;;;;;;;12.70;71.82;99286.34;5235526;28;20063;-70
2022/05/05 03:06:15;;;;;;;125.47;33.90;;;;;;;12.51;71.76;99275.81;5240641;28;20044;-70
2022/05/05 03:09:06;;;;;;;172.32;37.10;;;;;;;12.31;73.54;99267.09;5236931;28;20045;-69
2022/05/05 03:11:56;;;;;;;76.28;34.30;;;;;;;12.43;73.04;99286.38;5226289;28;20548;-70
2022/05/05 03:14:47;;;;;;;50.17;32.25;;;;;;;12.35;72.52;99268.50;5237893;28;20052;-70
2022/05/05 03:17:37;;;;;;;87.45;32.78;;;;;;;12.50;72.69;99291.94;5223569;28;20076;-70
2022/05/05 03:20:27;;;;;;;62.00;30.70;;;;;;;12.50;72.07;99294.59;5241473;28;20075;-70
2022/05/05 03:23:17;;;;;;;64.55;32.50;;;;;;;12.47;72.22;99293.06;5231125;28;20056;-70
2022/05/05 03:26:08;;;;;;;53.92;32.83;;;;;;;12.35;71.83;99291.59;5237711;28;20106;-70
2022/05/05 03:28:58;;;;;;;65.53;33.90;;;;;;;12.29;72.05;99277.06;5224087;28;20080;-70
2022/05/05 03:31:48;;;;;;;61.00;34.65;;;;;;;12.31;72.43;99288.38;5234892;28;20067;-70
2022/05/05 03:34:39;;;;;;;64.20;32.97;;;;;;;12.47;71.97;99295.72;5234682;28;20063;-70
2022/05/05 03:37:30;;;;;;;65.97;34.25;;;;;;;12.29;72.04;99273.59;5243958;28;20053;-70
2022/05/05 03:40:20;;;;;;;63.45;33.40;;;;;;;12.41;72.08;99302.47;5227165;28;20502;-70
2022/05/05 03:43:11;;;;;;;49.20;32.55;;;;;;;12.31;71.86;99298.19;5230730;28;20048;-70
2022/05/05 03:46:01;;;;;;;55.80;34.65;;;;;;;12.18;72.63;99304.66;5241791;28;20439;-69
2022/05/05 03:48:52;;;;;;;63.90;36.95;;;;;;;12.26;73.68;99305.78;5251961;28;20417;-70
2022/05/05 03:51:43;;;;;;;88.13;37.47;;;;;;;12.47;73.43;99301.03;5248188;28;20124;-69
2022/05/05 03:54:32;;;;;;;64.50;39.75;;;;;;;12.46;73.15;99304.69;5241239;28;20059;-70
2022/05/05 03:57:23;;;;;;;58.33;36.80;;;;;;;12.26;73.17;99273.88;5228504;28;20063;-69
2022/05/05 04:00:13;;;;;;;55.67;36.17;;;;;;;12.45;72.67;99308.34;5222887;28;20514;-69
2022/05/05 04:06:13;;;;;;;54.85;35.70;;;;;;;12.39;73.72;99317.75;5227556;28;20166;-69
2022/05/05 04:09:05;;;;;;;57.20;35.58;;;;;;;12.38;73.56;99305.44;5243531;28;20114;-68
2022/05/05 04:11:55;;;;;;;58.08;36.30;;;;;;;12.45;73.63;99300.38;5257695;28;20056;-69
2022/05/05 04:14:45;;;;;;;59.80;38.35;;;;;;;12.54;73.23;99317.25;5243318;28;20434;-69
2022/05/05 04:17:36;;;;;;;54.78;35.33;;;;;;;12.65;72.12;99311.75;5237010;28;20083;-68
2022/05/05 04:20:27;;;;;;;61.63;38.35;;;;;;;12.70;72.77;99312.94;5231667;28;20640;-67
2022/05/05 04:23:17;;;;;;;60.45;38.63;;;;;;;12.88;72.42;99314.78;5220719;28;20214;-68
2022/05/05 04:26:28;;;;;;;61.42;37.63;;;;;;;12.97;71.73;99303.25;5243340;28;20054;-68
2022/05/05 04:29:19;;;;;;;59.00;37.50;;;;;;;12.72;72.56;99311.97;5225815;28;20499;-67
2022/05/05 04:32:13;;;;;;;60.13;36.97;;;;;;;12.72;71.96;99312.81;5230341;28;20514;-69
2022/05/05 04:35:04;;;;;;;53.28;35.05;;;;;;;12.82;71.95;99318.06;5243148;28;20494;-68
2022/05/05 04:37:54;;;;;;;53.72;35.22;;;;;;;12.76;72.31;99322.16;5242813;28;20052;-69
2022/05/05 04:40:44;;;;;;;49.88;33.22;;;;;;;12.86;72.35;99351.38;5231443;28;20146;-69
2022/05/05 04:43:35;;;;;;;52.63;33.63;;;;;;;12.85;72.15;99350.53;5250843;28;20226;-68
2022/05/05 04:46:25;;;;;;;52.20;34.42;;;;;;;12.97;71.59;99355.63;5247624;28;20170;-68
2022/05/05 04:49:15;;;;;;;53.50;33.85;;;;;;;13.02;71.68;99348.88;5253846;28;20125;-68
2022/05/05 04:52:06;;;;;;;55.25;33.63;;;;;;;13.07;71.73;99359.91;5240225;28;20449;-68
2022/05/05 04:54:56;;;;;;;52.30;33.17;;;;;;;13.07;71.75;99345.75;5223586;28;20098;-69
2022/05/05 04:57:46;;;;;;;44.63;30.02;;;;;;;12.92;72.39;99348.13;5238924;28;20040;-68
2022/05/05 05:00:39;;;;;;;47.88;32.63;;;;;;;12.99;72.61;99330.56;5251963;28;20048;-69
2022/05/05 05:03:32;;;;;;;46.17;32.13;;;;;;;13.26;71.51;99358.97;5251933;28;20040;-68
2022/05/05 05:06:22;;;;;;;48.35;32.63;;;;;;;13.23;71.17;99350.41;5253555;28;20047;-67
2022/05/05 05:09:12;;;;;;;47.15;30.10;;;;;;;13.20;71.19;99362.19;5256740;28;20063;-68
2022/05/05 05:12:03;;;;;;;43.47;30.30;;;;;;;13.21;71.48;99363.03;5252007;28;20126;-69
2022/05/05 05:14:53;;;;;;;45.28;30.13;;;;;;;13.21;71.40;99365.69;5231699;28;20095;-70
2022/05/05 05:17:44;;;;;;;53.35;33.65;;;;;;;12.94;72.74;99368.25;5243499;28;20095;-70
2022/05/05 05:20:34;;;;;;;53.53;34.10;;;;;;;13.12;72.54;99367.47;5244715;28;20573;-69
2022/05/05 05:23:24;;;;;;;54.58;35.45;;;;;;;13.33;72.51;99364.53;5232982;28;20358;-69
2022/05/05 05:26:14;;;;;;;56.55;33.95;;;;;;;13.27;71.55;99335.84;5225552;28;20134;-70
2022/05/05 05:29:04;;;;;;;64.13;35.92;;;;;;;13.35;71.88;99366.03;5228864;28;20098;-70
2022/05/05 05:31:54;;;;;;;51.92;32.97;;;;;;;13.32;72.05;99353.03;5241453;28;20050;-69
2022/05/05 05:34:45;;;;;;;49.78;32.63;;;;;;;13.22;71.82;99362.06;5245100;28;20071;-69
2022/05/05 05:37:35;;;;;;;49.00;32.75;;;;;;;13.36;71.42;99374.88;5231978;28;20451;-69
2022/05/05 05:40:25;;;;;;;53.22;34.47;;;;;;;13.43;72.02;99357.28;5244729;28;20573;-69
2022/05/05 05:43:16;;;;;;;52.10;32.58;;;;;;;13.42;71.05;99365.44;5252737;28;20056;-71
2022/05/05 05:46:06;;;;;;;51.50;32.95;;;;;;;13.26;72.15;99347.47;5255529;28;20590;-69
2022/05/05 05:48:57;;;;;;;53.55;34.03;;;;;;;13.76;71.45;99378.88;5249888;28;20178;-69
2022/05/05 05:51:53;;;;;;;55.95;35.75;;;;;;;13.67;71.37;99379.78;5229163;28;20049;-70
2022/05/05 05:54:43;;;;;;;51.60;33.70;;;;;;;13.17;72.50;99363.34;5222759;28;20053;-70
2022/05/05 05:57:39;;;;;;;49.88;33.72;;;;;;;13.44;71.76;99376.75;5233500;28;20059;-70
2022/05/05 06:00:30;;;;;;;52.85;33.33;;;;;;;13.58;71.56;99387.72;5226957;28;20435;-70
2022/05/05 06:06:29;;;;;;;53.35;34.10;;;;;;;13.58;71.86;99387.72;5228504;28;20517;-70
2022/05/05 06:09:19;;;;;;;52.00;33.67;;;;;;;13.57;72.15;99383.38;5231909;28;20138;-70
2022/05/05 06:12:10;;;;;;;48.92;33.33;;;;;;;13.58;72.45;99393.06;5244722;28;20331;-69
2022/05/05 06:14:59;;;;;;;59.15;33.85;;;;;;;13.73;72.29;99384.50;5224927;28;20153;-71
2022/05/05 06:17:50;;;;;;;47.67;32.38;;;;;;;13.67;71.98;99393.94;5227156;28;20427;-68
2022/05/05 06:20:40;;;;;;;52.42;34.25;;;;;;;13.62;71.80;99396.25;5235801;28;20071;-69
2022/05/05 06:23:30;;;;;;;53.42;34.90;;;;;;;14.06;71.35;99397.09;5233097;28;20045;-69
2022/05/05 06:26:21;;;;;;;50.25;33.60;;;;;;;13.91;71.27;99409.31;5229732;28;20656;-69
2022/05/05 06:29:12;;;;;;;49.28;33.33;;;;;;;14.06;70.85;99406.91;5238250;28;20052;-71
2022/05/05 06:32:02;;;;;;;55.67;35.42;;;;;;;14.16;70.80;99404.97;5240721;28;20045;-71
2022/05/05 06:34:54;;;;;;;50.50;33.70;;;;;;;14.23;70.48;99394.53;5240562;28;20062;-72
2022/05/05 06:37:50;;;;;;;57.17;36.10;;;;;;;14.39;69.97;99415.13;5228669;28;20194;-70
2022/05/05 06:40:42;;;;;;;52.45;34.78;;;;;;;14.45;70.87;99423.34;5233872;28;20134;-68
2022/05/05 06:43:32;;;;;;;47.28;33.05;;;;;;;14.47;69.60;99425.84;5244153;28;20044;-68
2022/05/05 06:46:23;;;;;;;55.17;32.28;;;;;;;14.38;69.88;99426.81;5243169;28;20134;-68
2022/05/05 06:49:19;;;;;;;48.10;31.77;;;;;;;14.33;70.81;99425.41;5233976;28;20060;-71
2022/05/05 06:52:10;;;;;;;45.80;31.30;;;;;;;14.46;70.35;99414.34;5257018;23;20071;-70
2022/05/05 06:55:20;;;;;;;47.97;33.03;;;;;;;14.59;71.01;99435.28;5236137;28;20525;-71
2022/05/05 06:58:11;;;;;;;51.17;31.85;;;;;;;14.59;70.16;99407.75;5223948;28;20060;-71
2022/05/05 07:07:21;;;;;;;41.55;28.13;;;;;;;15.02;69.04;99431.63;5204758;28;20206;-72
2022/05/05 07:13:25;;;;;;;42.85;29.33;;;;;;;14.76;69.72;99423.69;5197626;28;20095;-71
2022/05/05 07:16:15;;;;;;;40.28;29.38;;;;;;;14.73;70.38;99431.19;5200498;28;20061;-71
2022/05/05 07:19:06;;;;;;;41.67;28.08;;;;;;;14.78;70.37;99428.88;5189669;28;20419;-71
2022/05/05 07:21:56;;;;;;;42.22;29.13;;;;;;;14.89;71.12;99447.28;5209979;28;20056;-71
2022/05/05 07:24:46;;;;;;;42.80;27.27;;;;;;;14.84;69.80;99444.25;5190022;28;20181;-71
2022/05/05 07:27:38;;;;;;;36.95;27.45;;;;;;;14.99;68.09;99447.97;5202263;28;20059;-72
2022/05/05 07:30:29;;;;;;;34.60;25.95;;;;;;;15.08;68.60;99448.03;5200926;28;20083;-71
2022/05/05 07:33:20;;;;;;;36.95;26.77;;;;;;;14.91;69.41;99447.97;5204365;28;20167;-72
2022/05/05 07:36:11;;;;;;;45.47;27.02;;;;;;;14.95;69.99;99451.13;5199911;28;20061;-71
2022/05/05 07:39:01;;;;;;;36.88;27.40;;;;;;;15.04;68.95;99436.81;5185281;28;20530;-72
2022/05/05 07:41:51;;;;;;;36.35;26.70;;;;;;;15.13;69.67;99448.34;5196682;28;20056;-72
2022/05/05 07:44:41;;;;;;;41.50;26.42;;;;;;;15.41;68.07;99456.97;5190494;28;20420;-72
2022/05/05 07:47:33;;;;;;;32.33;24.50;;;;;;;15.41;68.28;99446.28;5191917;28;20139;-71
2022/05/05 07:50:23;;;;;;;36.25;25.40;;;;;;;15.56;68.10;99449.97;5182536;28;20356;-71
2022/05/05 07:53:14;;;;;;;32.60;24.33;;;;;;;15.45;67.41;99448.44;5190279;28;20045;-71
2022/05/05 07:56:04;;;;;;;32.22;24.80;;;;;;;15.74;67.58;99441.84;5181604;28;20054;-71
2022/05/05 07:58:54;;;;;;;39.70;27.88;;;;;;;16.25;67.99;99455.88;5181208;28;20056;-69
2022/05/05 08:01:45;;;;;;;33.67;24.83;;;;;;;16.30;67.38;99458.88;5193149;28;20052;-71
2022/05/05 08:04:35;;;;;;;32.58;23.35;;;;;;;15.90;65.95;99455.22;5198686;28;20060;-70
2022/05/05 08:07:25;;;;;;;29.23;22.38;;;;;;;16.04;66.02;99463.59;5193446;28;20111;-70
2022/05/05 08:10:22;;;;;;;32.30;23.85;;;;;;;16.12;65.62;99460.91;5198098;28;20482;-70
2022/05/05 08:13:12;;;;;;;32.75;24.92;;;;;;;16.60;66.82;99464.53;5189895;28;20049;-70
2022/05/05 08:16:02;;;;;;;28.65;22.25;;;;;;;16.45;65.25;99459.84;5207311;28;20515;-70
2022/05/05 08:18:52;;;;;;;31.67;24.40;;;;;;;16.32;66.86;99461.38;5190398;28;20069;-70
2022/05/05 08:21:43;;;;;;;33.30;24.23;;;;;;;16.58;65.56;99471.88;5199407;28;20195;-70
2022/05/05 08:30:50;;;;;;;26.35;21.75;;;;;;;16.78;65.16;99488.44;5199719;28;20545;-71
2022/05/05 08:33:40;;;;;;;32.03;23.83;;;;;;;16.40;67.01;99469.41;5193236;28;20051;-71
2022/05/05 08:36:30;;;;;;;35.78;24.00;;;;;;;16.24;66.24;99491.66;5194706;28;20076;-70
2022/05/05 08:39:20;;;;;;;30.60;23.13;;;;;;;16.83;63.85;99489.59;5196472;28;20079;-70
2022/05/05 08:42:10;;;;;;;32.50;25.52;;;;;;;16.87;65.22;99482.03;5193212;28;20492;-70
2022/05/05 08:45:00;;;;;;;31.05;23.88;;;;;;;16.65;63.47;99488.94;5205594;28;20054;-70
2022/05/05 08:47:53;;;;;;;36.95;24.73;;;;;;;16.84;64.18;99491.25;5211812;28;20247;-70
2022/05/05 08:50:47;;;;;;;39.53;27.38;;;;;;;17.25;64.96;99498.31;5185408;28;20440;-70
2022/05/05 08:53:40;;;;;;;31.52;23.63;;;;;;;17.22;61.62;99480.75;5193682;28;20038;-70
2022/05/05 08:56:30;;;;;;;33.13;24.38;;;;;;;16.43;65.33;99491.31;5197763;28;20057;-70
2022/05/05 08:59:22;;;;;;;31.77;22.95;;;;;;;17.25;61.56;99488.44;5202839;28;20308;-70
2022/05/05 09:02:12;;;;;;;30.25;23.23;;;;;;;17.54;60.64;99490.44;5196591;28;20491;-70
2022/05/05 09:05:06;;;;;;;31.00;24.90;;;;;;;17.20;63.49;99492.66;5196986;28;20053;-70
2022/05/05 09:07:56;;;;;;;38.17;25.47;;;;;;;17.34;62.41;99491.91;5199121;28;20041;-71
2022/05/05 09:10:48;;;;;;;37.33;25.30;;;;;;;17.44;63.82;99505.91;5185718;28;20535;-70
2022/05/05 09:13:38;;;;;;;35.88;26.85;;;;;;;17.40;62.88;99499.25;5187890;28;20072;-71
2022/05/05 09:16:28;;;;;;;39.15;28.45;;;;;;;17.52;62.54;99510.41;5202200;28;20162;-71
2022/05/05 09:19:18;;;;;;;36.05;26.90;;;;;;;17.38;62.54;99501.25;5191548;28;20248;-70
2022/05/05 09:22:09;;;;;;;34.95;25.73;;;;;;;17.25;61.86;99507.19;5203028;28;20154;-71
2022/05/05 09:25:01;;;;;;;34.00;26.58;;;;;;;17.12;62.67;99499.72;5187825;28;20100;-71
2022/05/05 09:27:54;;;;;;;39.95;28.70;;;;;;;17.38;62.85;99502.13;5190282;28;20111;-71
2022/05/05 09:30:52;;;;;;;34.80;26.40;;;;;;;17.12;63.26;99501.56;5200126;28;20423;-70
2022/05/05 09:33:44;;;;;;;36.92;28.40;;;;;;;17.06;63.37;99512.97;5197058;28;20042;-72
2022/05/05 09:36:34;;;;;;;39.35;26.90;;;;;;;17.09;61.67;99517.97;5186169;28;20437;-71
2022/05/05 09:39:34;;;;;;;35.10;25.55;;;;;;;17.14;61.70;99515.59;5194499;28;20077;-72
2022/05/05 09:42:34;;;;;;;38.13;25.95;;;;;;;17.27;62.40;99515.06;5182205;28;20097;-69
2022/05/05 09:45:29;;;;;;;34.45;25.70;;;;;;;17.00;61.78;99514.47;5202697;28;20072;-70
2022/05/05 09:48:20;;;;;;;38.45;27.23;;;;;;;17.08;63.22;99521.66;5201128;28;20148;-71
2022/05/05 09:51:11;;;;;;;40.28;26.88;;;;;;;16.92;62.17;99519.88;5198975;28;20092;-70
2022/05/05 09:57:42;;;;;;;37.83;27.95;;;;;;;16.87;63.86;99524.91;5185372;28;20063;-70
2022/05/05 10:01:21;;;;;;;41.45;28.02;;;;;;;16.74;62.46;99520.03;5201306;28;20594;-70
2022/05/05 10:04:00;;;;;;;40.77;29.73;;;;;;;16.74;64.07;99524.56;5188188;28;20046;-70
2022/05/05 10:06:52;;;;;;;;;;;;;;;16.51;63.11;99529.78;5204695;28;20284;-69
2022/05/05 10:09:43;;;;;;;42.58;27.77;;;;;;;16.73;62.33;99515.69;5201545;28;19979;-69
2022/05/05 10:12:36;;;;;;;42.83;30.17;;;;;;;16.45;63.24;99528.59;5195704;28;20049;-70
2022/05/05 10:15:27;;;;;;;39.67;29.23;;;;;;;15.92;64.70;99505.84;5190305;28;20054;-70
2022/05/05 10:18:40;;;;;;;45.65;30.90;;;;;;;16.29;64.76;99534.81;5193887;28;20420;-70
2022/05/05 10:21:59;;;;;;;46.00;31.42;;;;;;;16.76;63.45;99533.31;5200400;28;20203;-70
2022/05/05 10:24:53;;;;;;;40.95;30.50;;;;;;;16.94;63.10;99525.06;5195414;28;20104;-70
2022/05/05 10:27:44;;;;;;;44.47;30.58;;;;;;;17.14;62.33;99523.63;5197015;28;20112;-70
2022/05/05 10:30:35;;;;;;;46.55;31.85;;;;;;;17.09;62.55;99523.34;5191289;28;20056;-70
2022/05/05 10:33:57;;;;;;;50.50;32.72;;;;;;;17.29;62.13;99521.91;5183723;28;20057;-70
2022/05/05 10:36:58;;;;;;;47.58;31.55;;;;;;;17.58;61.17;99528.47;5200038;28;20042;-70
2022/05/05 10:40:01;;;;;;;46.53;32.92;;;;;;;17.67;62.08;99530.09;5204463;28;20123;-70
2022/05/05 10:42:52;;;;;;;42.65;30.10;;;;;;;17.64;60.75;99525.06;5196355;28;20049;-70
2022/05/05 10:45:43;;;;;;;46.70;31.05;;;;;;;17.07;61.08;99512.78;5194916;28;20191;-70
2022/05/05 10:48:35;;;;;;;47.30;32.08;;;;;;;17.31;62.27;99527.91;5200099;28;20059;-70
2022/05/05 10:51:25;;;;;;;48.20;33.15;;;;;;;16.97;63.31;99524.72;5201630;28;20056;-71
2022/05/05 10:54:25;;;;;;;45.97;33.50;;;;;;;17.50;61.53;99521.31;5193023;28;20064;-70
2022/05/05 10:57:27;;;;;;;53.22;35.30;;;;;;;17.35;61.28;99521.22;5199199;28;20471;-70
2022/05/05 11:00:22;;;;;;;53.85;36.40;;;;;;;17.17;60.80;99514.44;5190451;28;20081;-69
2022/05/05 11:03:14;;;;;;;52.47;37.60;;;;;;;17.21;61.50;99511.22;5199222;28;20057;-70
2022/05/05 11:06:15;;;;;;;57.13;38.05;;;;;;;17.57;60.89;99532.16;5193774;28;20413;-70
2022/05/05 11:09:06;;;;;;;54.75;38.17;;;;;;;17.64;61.14;99522.41;5202984;28;20052;-70
2022/05/05 11:12:21;;;;;;;54.65;36.67;;;;;;;17.69;60.96;99532.63;5189704;28;20053;-69
2022/05/05 11:21:37;;;;;;;60.13;39.22;;;;;;;17.86;60.95;99523.47;5191111;28;20159;-70
2022/05/05 11:24:28;;;;;;;51.13;37.80;;;;;;;17.33;63.25;99520.56;5201386;28;20533;-68
2022/05/05 11:27:24;;;;;;;53.20;37.72;;;;;;;17.08;62.79;99530.50;5187940;28;20107;-70
2022/05/05 11:30:14;;;;;;;49.42;36.75;;;;;;;18.08;60.85;99529.88;5185044;28;20057;-70
2022/05/05 11:33:06;;;;;;;56.53;38.15;;;;;;;18.25;60.51;99526.03;5190607;28;20545;-71
2022/05/05 11:36:06;;;;;;;50.95;36.95;;;;;;;17.94;59.46;99522.59;5193880;28;20056;-72
2022/05/05 11:38:57;;;;;;;55.40;36.65;;;;;;;16.88;62.14;99524.72;5192951;28;20072;-69
2022/05/05 11:42:02;;;;;;;65.10;39.95;;;;;;;17.19;62.93;99507.88;5189145;28;20103;-70
2022/05/05 11:44:52;;;;;;;53.17;37.53;;;;;;;17.59;61.19;99514.06;5189846;28;20053;-71
2022/05/05 11:47:42;;;;;;;53.47;36.83;;;;;;;17.84;60.86;99518.28;5191237;28;20192;-71
2022/05/05 11:50:40;;;;;;;55.60;38.08;;;;;;;17.50;60.52;99509.75;5187230;28;20083;-71
2022/05/05 11:53:36;;;;;;;56.30;37.72;;;;;;;17.54;60.24;99514.56;5259454;27;20393;-70
2022/05/05 11:56:28;;;;;;;53.85;37.58;;;;;;;17.61;59.94;99509.34;5239721;28;20055;-69
2022/05/05 12:02:37;;;;;;;60.03;37.13;;;;;;;16.78;62.37;99497.28;5214814;28;20953;-69
2022/05/05 12:05:31;;;;;;;53.77;36.00;;;;;;;17.15;61.09;99517.25;5224922;28;20055;-70
2022/05/05 12:08:21;;;;;;;58.42;38.45;;;;;;;17.18;63.13;99500.00;5235832;28;20431;-69
2022/05/05 12:11:14;;;;;;;55.10;36.88;;;;;;;17.58;61.45;99515.91;5219138;28;20499;-70
2022/05/05 12:14:06;;;;;;;58.15;36.15;;;;;;;17.75;61.44;99513.13;5219446;28;20060;-70
2022/05/05 12:16:59;;;;;;;59.30;38.35;;;;;;;17.37;62.20;99504.94;5219539;28;20057;-70
2022/05/05 12:19:53;;;;;;;56.95;37.88;;;;;;;17.42;61.89;99510.63;5220305;28;20045;-70
2022/05/05 12:22:52;;;;;;;57.20;38.57;;;;;;;17.09;62.52;99508.09;5219209;28;20111;-70
2022/05/05 12:25:44;;;;;;;59.95;39.72;;;;;;;17.41;62.42;99503.59;5222423;28;20135;-69
2022/05/05 12:28:49;;;;;;;58.42;39.17;;;;;;;17.52;61.97;99497.84;5222431;28;20049;-70
2022/05/05 12:31:54;;;;;;;58.08;39.38;;;;;;;17.77;62.54;99503.09;5217890;28;20103;-70
2022/05/05 12:35:11;;;;;;;59.25;37.95;;;;;;;17.52;62.51;99491.66;5218996;28;20088;-70
2022/05/05 12:38:03;;;;;;;59.92;41.72;;;;;;;17.73;63.03;99478.44;5233716;28;20514;-70
2022/05/05 12:41:06;;;;;;;59.55;39.70;;;;;;;17.44;62.09;99489.00;5234660;28;20091;-70
2022/05/05 12:44:05;;;;;;;64.78;41.10;;;;;;;17.33;62.16;99480.34;5223931;28;20044;-70
2022/05/05 12:47:02;;;;;;;62.30;41.85;;;;;;;16.64;64.26;99482.75;5226771;28;20044;-70
2022/05/05 12:49:53;;;;;;;60.88;42.10;;;;;;;16.56;66.76;99496.16;5228294;28;20052;-70
2022/05/05 13:02:25;;;;;;;63.10;42.85;;;;;;;16.32;66.71;99464.88;5236548;28;20557;-81
2022/05/05 13:05:18;;;;;;;65.40;42.65;;;;;;;17.44;64.00;99487.16;5231889;22;20114;-81
2022/05/05 13:08:09;;;;;;;67.22;42.25;;;;;;;17.40;63.19;99471.59;5208734;28;20053;-82
2022/05/05 13:10:59;;;;;;;63.90;40.30;;;;;;;16.64;65.19;99465.84;5227785;28;20080;-83
2022/05/05 13:13:50;;;;;;;61.88;40.33;;;;;;;16.73;65.83;99480.06;5215707;28;20082;-82
2022/05/05 13:16:47;;;;;;;62.63;39.80;;;;;;;16.92;65.56;99479.69;5190198;28;20049;-81
2022/05/05 13:19:38;;;;;;;68.57;41.28;;;;;;;16.59;66.50;99465.53;5206864;28;20455;-82
2022/05/05 13:22:29;;;;;;;62.63;40.25;;;;;;;17.29;65.45;99481.72;5190447;28;20431;-82
2022/05/05 13:25:19;;;;;;;59.50;39.60;;;;;;;17.00;66.07;99485.00;5215089;28;20056;-82
2022/05/05 13:28:11;;;;;;;60.22;40.85;;;;;;;17.88;62.97;99470.50;5212166;28;20076;-82
2022/05/05 13:31:01;;;;;;;57.25;38.10;;;;;;;16.96;63.38;99462.28;5206846;28;20072;-83
2022/05/05 13:33:52;;;;;;;57.85;36.50;;;;;;;17.13;64.08;99469.22;5214342;28;20427;-82
2022/05/05 13:36:42;;;;;;;59.97;37.60;;;;;;;17.11;64.00;99452.47;5228732;28;20048;-80
2022/05/05 13:39:33;;;;;;;54.63;36.10;;;;;;;17.34;62.65;99457.88;5239351;28;20048;-83
2022/05/05 13:42:24;;;;;;;55.63;35.95;;;;;;;17.51;62.99;99455.94;5195586;28;20045;-82
2022/05/05 13:45:15;;;;;;;52.72;35.42;;;;;;;17.52;61.91;99463.00;5217742;28;20160;-82
2022/05/05 13:48:06;;;;;;;55.05;35.05;;;;;;;17.32;62.11;99469.81;5221294;28;20045;-82
2022/05/05 13:50:56;;;;;;;52.50;33.90;;;;;;;17.47;63.03;99456.47;5222570;28;20094;-82
2022/05/05 13:53:46;;;;;;;54.72;35.55;;;;;;;17.58;61.95;99448.03;5209267;28;20375;-82
2022/05/05 13:56:36;;;;;;;50.20;34.78;;;;;;;17.10;63.00;99429.38;5192276;28;20049;-82
2022/05/05 13:59:26;;;;;;;52.60;35.38;;;;;;;17.54;61.88;99450.22;5204109;28;21778;-82
2022/05/05 14:02:17;;;;;;;52.85;34.78;;;;;;;17.50;62.26;99459.63;5201498;28;20052;-83
2022/05/05 14:05:08;;;;;;;49.55;35.53;;;;;;;17.58;62.92;99454.25;5199076;28;20456;-82
2022/05/05 14:14:16;;;;;;;50.90;34.70;;;;;;;18.02;62.27;99447.41;5204214;28;20207;-82